createdAt,value
2022-12-29T00:01:30.803Z,16.77
2022-12-29T00:06:34.382Z,16.17
2022-12-29T00:11:37.620Z,13.48
2022-12-29T00:16:44.173Z,13.65
2022-12-29T00:22:04.804Z,14.40
2022-12-29T00:27:31.454Z,13.50
2022-12-29T00:32:53.818Z,13.10
2022-12-29T00:38:16.910Z,13.73
2022-12-29T00:43:38.680Z,13.10
2022-12-29T00:49:00.767Z,13.00
2022-12-29T00:54:04.134Z,12.70
2022-12-29T00:59:09.055Z,13.32
2022-12-29T01:04:14.228Z,12.73
2022-12-29T01:09:36.778Z,10.63
2022-12-29T01:14:40.467Z,11.48
2022-12-29T01:19:45.191Z,12.20
2022-12-29T01:24:48.519Z,12.02
2022-12-29T01:29:51.831Z,12.43
2022-12-29T01:34:56.787Z,14.52
2022-12-29T01:40:00.184Z,12.30
2022-12-29T01:45:05.116Z,13.07
2022-12-29T01:50:13.979Z,13.45
2022-12-29T01:55:18.302Z,12.85
2022-12-29T02:00:23.043Z,12.57
2022-12-29T02:05:32.902Z,13.00
2022-12-29T02:10:37.388Z,13.32
2022-12-29T02:15:51.026Z,13.00
2022-12-29T02:21:40.696Z,12.45
2022-12-29T02:27:00.503Z,12.48
2022-12-29T02:32:10.035Z,11.90
2022-12-29T02:37:22.055Z,10.40
2022-12-29T02:42:35.745Z,11.13
2022-12-29T02:47:49.222Z,11.50
2022-12-29T02:52:57.108Z,10.52
2022-12-29T02:58:21.275Z,9.10
2022-12-29T03:03:42.786Z,9.70
2022-12-29T03:08:53.025Z,9.20
2022-12-29T03:14:19.602Z,9.73
2022-12-29T03:19:31.493Z,9.68
2022-12-29T03:24:40.725Z,9.18
2022-12-29T03:29:53.402Z,9.45
2022-12-29T03:34:58.699Z,9.17
2022-12-29T03:40:02.028Z,8.47
2022-12-29T03:45:08.510Z,8.80
2022-12-29T03:50:16.536Z,8.18
2022-12-29T03:55:21.891Z,9.15
2022-12-29T04:00:25.224Z,9.60
2022-12-29T04:05:32.205Z,9.52
2022-12-29T04:10:36.764Z,10.10
2022-12-29T04:15:43.532Z,9.13
2022-12-29T04:21:05.077Z,10.07
2022-12-29T04:26:10.750Z,10.73
2022-12-29T04:31:27.304Z,10.18
2022-12-29T04:36:32.320Z,10.13
2022-12-29T04:41:36.586Z,10.10
2022-12-29T04:46:41.970Z,8.70
2022-12-29T04:51:52.813Z,10.02
2022-12-29T04:56:56.821Z,9.40
2022-12-29T05:02:01.655Z,9.25
2022-12-29T05:07:07.225Z,8.90
2022-12-29T05:12:11.052Z,8.93
2022-12-29T05:17:22.425Z,8.63
2022-12-29T05:22:27.377Z,8.93
2022-12-29T05:27:32.491Z,8.77
2022-12-29T05:33:14.224Z,8.40
2022-12-29T05:38:19.238Z,8.67
2022-12-29T05:43:22.742Z,9.05
2022-12-29T05:48:49.485Z,9.45
2022-12-29T05:54:10.640Z,8.70
2022-12-29T05:59:15.019Z,8.75
2022-12-29T06:04:19.497Z,9.20
2022-12-29T06:09:25.564Z,9.63
2022-12-29T06:14:30.731Z,9.52
2022-12-29T06:19:35.530Z,9.60
2022-12-29T06:24:40.535Z,9.27
2022-12-29T06:29:44.017Z,10.40
2022-12-29T06:34:47.527Z,9.15
2022-12-29T06:39:52.217Z,8.52
2022-12-29T06:44:57.964Z,9.10
2022-12-29T06:50:01.247Z,9.43
2022-12-29T06:55:06.740Z,9.50
2022-12-29T07:00:11.715Z,8.37
2022-12-29T07:05:15.179Z,8.07
2022-12-29T07:10:19.903Z,7.97
2022-12-29T07:15:23.320Z,8.13
2022-12-29T07:20:27.338Z,8.20
2022-12-29T07:25:32.137Z,8.53
2022-12-29T07:30:35.509Z,8.55
2022-12-29T07:35:38.854Z,8.07
2022-12-29T07:40:43.563Z,7.97
2022-12-29T07:45:47.142Z,7.10
2022-12-29T07:50:52.775Z,6.90
2022-12-29T07:55:58.334Z,6.63
2022-12-29T08:01:01.718Z,6.10
2022-12-29T08:06:05.407Z,5.78
2022-12-29T08:11:10.133Z,5.30
2022-12-29T08:16:13.605Z,5.50
2022-12-29T08:21:17.716Z,5.60
2022-12-29T08:26:22.890Z,5.72
2022-12-29T08:31:27.540Z,5.47
2022-12-29T08:36:31.126Z,6.45
2022-12-29T08:41:35.790Z,4.95
2022-12-29T08:46:39.116Z,5.05
2022-12-29T08:51:42.509Z,6.68
2022-12-29T08:56:47.287Z,5.63
2022-12-29T09:01:52.922Z,6.25
2022-12-29T09:06:56.408Z,4.80
2022-12-29T09:12:01.254Z,4.80
2022-12-29T09:17:21.683Z,3.97
2022-12-29T09:22:24.989Z,3.70
2022-12-29T09:27:31.057Z,3.93
2022-12-29T09:32:36.829Z,3.88
2022-12-29T09:37:42.815Z,4.35
2022-12-29T09:42:57.684Z,4.20
2022-12-29T09:48:05.386Z,4.85
2022-12-29T09:53:16.964Z,4.40
2022-12-29T09:58:31.392Z,4.90
2022-12-29T10:03:43.388Z,4.68
2022-12-29T10:08:52.655Z,4.93
2022-12-29T10:14:15.953Z,4.70
2022-12-29T10:19:35.356Z,4.38
2022-12-29T10:24:41.841Z,4.10
2022-12-29T10:29:51.076Z,4.40
2022-12-29T10:34:59.356Z,4.13
2022-12-29T10:40:05.367Z,4.50
2022-12-29T10:45:15.232Z,5.03
2022-12-29T10:50:18.927Z,4.45
2022-12-29T10:55:28.366Z,4.60
2022-12-29T11:00:34.697Z,3.35
2022-12-29T11:05:42.876Z,2.92
2022-12-29T11:10:48.998Z,2.97
2022-12-29T11:15:54.368Z,3.13
2022-12-29T11:21:00.485Z,3.13
2022-12-29T11:26:17.179Z,2.78
2022-12-29T11:31:24.574Z,2.90
2022-12-29T11:36:27.959Z,3.47
2022-12-29T11:41:33.195Z,3.30
2022-12-29T11:46:40.519Z,3.05
2022-12-29T11:51:47.696Z,3.08
2022-12-29T11:56:52.249Z,3.60
2022-12-29T12:01:58.625Z,3.58
2022-12-29T12:07:13.563Z,3.90
2022-12-29T12:12:26.735Z,3.40
2022-12-29T12:17:38.547Z,3.75
2022-12-29T12:22:48.671Z,3.67
2022-12-29T12:27:57.988Z,4.13
2022-12-29T12:33:07.880Z,3.60
2022-12-29T12:38:28.430Z,3.30
2022-12-29T12:43:42.518Z,3.03
2022-12-29T12:49:13.995Z,2.75
2022-12-29T12:54:36.003Z,3.03
2022-12-29T12:59:58.143Z,4.23
2022-12-29T13:05:26.804Z,3.97
2022-12-29T13:10:48.439Z,3.10
2022-12-29T13:16:00.324Z,3.30
2022-12-29T13:21:14.316Z,3.80
2022-12-29T13:26:23.176Z,3.80
2022-12-29T13:31:35.903Z,3.23
2022-12-29T13:36:45.280Z,2.53
2022-12-29T13:41:53.101Z,3.67
2022-12-29T13:46:58.466Z,2.10
2022-12-29T13:52:11.211Z,3.35
2022-12-29T13:57:33.142Z,3.20
2022-12-29T14:02:55.127Z,3.70
2022-12-29T14:08:05.175Z,3.20
2022-12-29T14:13:14.209Z,6.47
2022-12-29T14:18:21.172Z,3.30
2022-12-29T14:23:38.889Z,2.67
2022-12-29T14:28:43.755Z,5.75
2022-12-29T14:34:40.442Z,2.78
2022-12-29T14:39:45.431Z,3.83
2022-12-29T14:44:50.401Z,3.40
2022-12-29T14:49:56.140Z,3.10
2022-12-29T14:55:01.583Z,6.82
2022-12-29T15:00:16.622Z,4.07
2022-12-29T15:05:31.967Z,2.15
2022-12-29T15:10:40.813Z,2.65
2022-12-29T15:15:44.035Z,2.40
2022-12-29T15:20:52.742Z,2.47
2022-12-29T15:25:58.089Z,1.63
2022-12-29T15:31:06.695Z,1.38
2022-12-29T15:36:15.239Z,1.30
2022-12-29T15:41:31.664Z,1.77
2022-12-29T15:46:35.039Z,2.03
2022-12-29T15:51:41.330Z,1.77
2022-12-29T15:56:44.976Z,1.90
2022-12-29T16:01:48.356Z,2.17
2022-12-29T16:07:00.459Z,3.63
2022-12-29T16:12:06.542Z,2.57
2022-12-29T16:17:14.622Z,2.60
2022-12-29T16:22:25.087Z,3.92
2022-12-29T16:27:35.098Z,6.43
2022-12-29T16:32:48.581Z,7.63
2022-12-29T16:38:14.399Z,6.22
2022-12-29T16:43:23.676Z,4.30
2022-12-29T16:48:29.405Z,3.60
2022-12-29T16:53:37.527Z,5.82
2022-12-29T16:58:42.715Z,8.23
2022-12-29T17:03:52.780Z,4.20
2022-12-29T17:08:58.367Z,6.43
2022-12-29T17:14:01.669Z,6.93
2022-12-29T17:19:04.954Z,10.23
2022-12-29T17:24:17.483Z,5.80
2022-12-29T17:29:27.650Z,3.30
2022-12-29T17:34:31.076Z,4.23
2022-12-29T17:39:35.697Z,3.67
2022-12-29T17:44:38.922Z,4.93
2022-12-29T17:49:46.053Z,7.70
2022-12-29T17:54:53.001Z,5.70
2022-12-29T17:59:56.221Z,5.05
2022-12-29T18:05:00.466Z,3.22
2022-12-29T18:10:05.358Z,3.42
2022-12-29T18:15:18.710Z,6.23
2022-12-29T18:20:21.996Z,3.60
2022-12-29T18:25:32.142Z,3.60
2022-12-29T18:30:36.567Z,3.63
2022-12-29T18:35:42.102Z,5.07
2022-12-29T18:40:46.777Z,6.05
2022-12-29T18:45:50.192Z,4.60
2022-12-29T18:50:53.878Z,5.67
2022-12-29T18:55:58.535Z,7.88
2022-12-29T19:01:01.857Z,7.07
2022-12-29T19:06:05.238Z,7.23
2022-12-29T19:11:10.095Z,6.40
2022-12-29T19:16:18.796Z,5.80
2022-12-29T19:21:22.378Z,5.97
2022-12-29T19:26:34.467Z,6.45
2022-12-29T19:31:39.852Z,8.43
2022-12-29T19:36:43.787Z,6.72
2022-12-29T19:41:48.428Z,5.80
2022-12-29T19:46:51.749Z,3.83
2022-12-29T19:51:55.057Z,8.50
2022-12-29T19:56:59.628Z,9.05
2022-12-29T20:02:02.985Z,8.90
2022-12-29T20:07:06.336Z,8.67
2022-12-29T20:12:11.834Z,7.80
2022-12-29T20:17:23.157Z,8.52
2022-12-29T20:22:39.872Z,7.57
2022-12-29T20:27:44.550Z,8.07
2022-12-29T20:32:47.901Z,7.43
2022-12-29T20:37:51.200Z,7.40
2022-12-29T20:42:55.837Z,8.13
2022-12-29T20:47:59.067Z,7.87
2022-12-29T20:53:02.345Z,7.90
2022-12-29T20:58:23.546Z,8.30
2022-12-29T21:03:27.595Z,11.45
2022-12-29T21:08:31.819Z,13.50
2022-12-29T21:13:36.492Z,11.00
2022-12-29T21:18:40.173Z,9.57
2022-12-29T21:23:43.342Z,9.18
2022-12-29T21:28:48.546Z,9.85
2022-12-29T21:33:52.527Z,9.70
2022-12-29T21:38:56.267Z,10.10
2022-12-29T21:44:18.348Z,11.48
2022-12-29T21:49:22.862Z,15.40
2022-12-29T21:54:45.704Z,10.77
2022-12-29T22:00:07.770Z,11.05
2022-12-29T22:05:31.032Z,10.55
2022-12-29T22:10:51.907Z,10.20
2022-12-29T22:15:56.577Z,11.20
2022-12-29T22:20:59.931Z,9.35
2022-12-29T22:26:05.627Z,9.10
2022-12-29T22:31:27.481Z,9.70
2022-12-29T22:36:32.296Z,10.10
2022-12-29T22:41:35.679Z,8.50
2022-12-29T22:46:40.323Z,9.83
2022-12-29T22:51:43.585Z,9.85
2022-12-29T22:56:46.885Z,10.02
2022-12-29T23:01:51.599Z,10.70
2022-12-29T23:06:54.946Z,11.23
2022-12-29T23:11:58.195Z,12.50
2022-12-29T23:17:02.843Z,14.03
2022-12-29T23:22:06.098Z,12.52
2022-12-29T23:27:09.404Z,10.25
2022-12-29T23:32:14.017Z,10.00
2022-12-29T23:37:17.287Z,9.53
2022-12-29T23:42:20.496Z,9.40
2022-12-29T23:47:25.142Z,9.80
2022-12-29T23:52:28.419Z,8.23
2022-12-29T23:57:31.924Z,5.88
